sensor_id;sensor_type;location;lat;lon;timestamp;P1;durP1;ratioP1;P2;durP2;ratioP2
17032;SDS011;63208;52.178;21.016;2022-10-16T00:01:04;13.17;;;10.50;;
17032;SDS011;63208;52.178;21.016;2022-10-16T00:03:34;15.80;;;11.17;;
17032;SDS011;63208;52.178;21.016;2022-10-16T00:06:01;15.27;;;11.07;;
17032;SDS011;63208;52.178;21.016;2022-10-16T00:08:28;18.40;;;11.40;;
17032;SDS011;63208;52.178;21.016;2022-10-16T00:10:59;15.23;;;11.23;;
17032;SDS011;63208;52.178;21.016;2022-10-16T00:13:28;16.90;;;11.50;;
17032;SDS011;63208;52.178;21.016;2022-10-16T00:15:55;14.67;;;10.63;;
17032;SDS011;63208;52.178;21.016;2022-10-16T00:18:24;17.07;;;11.53;;
17032;SDS011;63208;52.178;21.016;2022-10-16T00:20:52;15.47;;;12.13;;
17032;SDS011;63208;52.178;21.016;2022-10-16T00:23:20;15.73;;;11.37;;
17032;SDS011;63208;52.178;21.016;2022-10-16T00:25:54;13.97;;;11.73;;
17032;SDS011;63208;52.178;21.016;2022-10-16T00:28:22;16.70;;;12.63;;
17032;SDS011;63208;52.178;21.016;2022-10-16T00:30:49;15.03;;;11.60;;
17032;SDS011;63208;52.178;21.016;2022-10-16T00:33:16;14.97;;;11.83;;
17032;SDS011;63208;52.178;21.016;2022-10-16T00:35:43;16.57;;;12.20;;
17032;SDS011;63208;52.178;21.016;2022-10-16T00:38:11;15.53;;;12.20;;
17032;SDS011;63208;52.178;21.016;2022-10-16T00:40:38;17.80;;;12.40;;
17032;SDS011;63208;52.178;21.016;2022-10-16T00:43:09;17.60;;;13.30;;
17032;SDS011;63208;52.178;21.016;2022-10-16T00:45:40;19.27;;;13.27;;
17032;SDS011;63208;52.178;21.016;2022-10-16T00:48:08;16.30;;;12.37;;
17032;SDS011;63208;52.178;21.016;2022-10-16T00:50:39;19.40;;;13.37;;
17032;SDS011;63208;52.178;21.016;2022-10-16T00:53:08;19.97;;;13.20;;
17032;SDS011;63208;52.178;21.016;2022-10-16T00:55:38;16.63;;;12.97;;
17032;SDS011;63208;52.178;21.016;2022-10-16T00:58:05;18.20;;;12.40;;
17032;SDS011;63208;52.178;21.016;2022-10-16T01:00:32;19.13;;;12.77;;
17032;SDS011;63208;52.178;21.016;2022-10-16T01:03:00;17.70;;;13.17;;
17032;SDS011;63208;52.178;21.016;2022-10-16T01:05:30;17.13;;;12.93;;
17032;SDS011;63208;52.178;21.016;2022-10-16T01:08:04;17.17;;;12.77;;
17032;SDS011;63208;52.178;21.016;2022-10-16T01:10:40;23.10;;;13.90;;
17032;SDS011;63208;52.178;21.016;2022-10-16T01:13:15;17.27;;;12.73;;
17032;SDS011;63208;52.178;21.016;2022-10-16T01:15:47;18.37;;;13.10;;
17032;SDS011;63208;52.178;21.016;2022-10-16T01:18:21;19.40;;;12.83;;
17032;SDS011;63208;52.178;21.016;2022-10-16T01:20:56;18.20;;;12.50;;
17032;SDS011;63208;52.178;21.016;2022-10-16T01:23:28;18.03;;;12.60;;
17032;SDS011;63208;52.178;21.016;2022-10-16T01:26:16;17.17;;;12.73;;
17032;SDS011;63208;52.178;21.016;2022-10-16T01:29:01;19.33;;;12.90;;
17032;SDS011;63208;52.178;21.016;2022-10-16T01:31:35;16.93;;;12.63;;
17032;SDS011;63208;52.178;21.016;2022-10-16T01:34:06;17.03;;;13.07;;
17032;SDS011;63208;52.178;21.016;2022-10-16T01:36:40;20.27;;;13.20;;
17032;SDS011;63208;52.178;21.016;2022-10-16T01:39:11;17.87;;;13.50;;
17032;SDS011;63208;52.178;21.016;2022-10-16T01:41:41;17.67;;;12.97;;
17032;SDS011;63208;52.178;21.016;2022-10-16T01:44:14;15.90;;;12.63;;
17032;SDS011;63208;52.178;21.016;2022-10-16T01:46:46;22.40;;;13.83;;
17032;SDS011;63208;52.178;21.016;2022-10-16T01:49:14;18.27;;;13.87;;
17032;SDS011;63208;52.178;21.016;2022-10-16T01:51:43;18.77;;;13.00;;
17032;SDS011;63208;52.178;21.016;2022-10-16T01:54:14;18.27;;;13.37;;
17032;SDS011;63208;52.178;21.016;2022-10-16T01:56:44;16.33;;;13.03;;
17032;SDS011;63208;52.178;21.016;2022-10-16T01:59:15;15.83;;;13.33;;
17032;SDS011;63208;52.178;21.016;2022-10-16T02:01:47;18.77;;;12.77;;
17032;SDS011;63208;52.178;21.016;2022-10-16T02:04:20;16.10;;;13.13;;
17032;SDS011;63208;52.178;21.016;2022-10-16T02:06:50;19.30;;;13.30;;
17032;SDS011;63208;52.178;21.016;2022-10-16T02:09:18;18.80;;;13.80;;
17032;SDS011;63208;52.178;21.016;2022-10-16T02:11:45;19.93;;;13.80;;
17032;SDS011;63208;52.178;21.016;2022-10-16T02:14:15;18.97;;;13.23;;
17032;SDS011;63208;52.178;21.016;2022-10-16T02:16:43;18.73;;;13.77;;
17032;SDS011;63208;52.178;21.016;2022-10-16T02:19:12;19.30;;;14.00;;
17032;SDS011;63208;52.178;21.016;2022-10-16T02:21:42;18.80;;;14.17;;
17032;SDS011;63208;52.178;21.016;2022-10-16T02:24:15;21.00;;;14.57;;
17032;SDS011;63208;52.178;21.016;2022-10-16T02:26:48;19.97;;;13.57;;
17032;SDS011;63208;52.178;21.016;2022-10-16T02:29:20;19.90;;;14.50;;
17032;SDS011;63208;52.178;21.016;2022-10-16T02:31:50;18.83;;;14.07;;
17032;SDS011;63208;52.178;21.016;2022-10-16T02:34:21;20.67;;;14.93;;
17032;SDS011;63208;52.178;21.016;2022-10-16T02:36:51;18.90;;;14.77;;
17032;SDS011;63208;52.178;21.016;2022-10-16T02:39:19;19.03;;;14.73;;
17032;SDS011;63208;52.178;21.016;2022-10-16T02:41:47;18.90;;;14.73;;
17032;SDS011;63208;52.178;21.016;2022-10-16T02:44:14;21.73;;;14.43;;
17032;SDS011;63208;52.178;21.016;2022-10-16T02:46:42;20.33;;;14.40;;
17032;SDS011;63208;52.178;21.016;2022-10-16T02:49:09;20.50;;;14.57;;
17032;SDS011;63208;52.178;21.016;2022-10-16T02:51:36;21.60;;;15.20;;
17032;SDS011;63208;52.178;21.016;2022-10-16T02:54:03;19.97;;;14.50;;
17032;SDS011;63208;52.178;21.016;2022-10-16T02:56:30;21.07;;;15.23;;
17032;SDS011;63208;52.178;21.016;2022-10-16T02:58:58;19.50;;;14.77;;
17032;SDS011;63208;52.178;21.016;2022-10-16T03:01:25;18.97;;;14.57;;
17032;SDS011;63208;52.178;21.016;2022-10-16T03:03:53;17.40;;;13.47;;
17032;SDS011;63208;52.178;21.016;2022-10-16T03:06:20;21.43;;;14.57;;
17032;SDS011;63208;52.178;21.016;2022-10-16T03:08:48;18.97;;;14.13;;
17032;SDS011;63208;52.178;21.016;2022-10-16T03:11:15;21.50;;;14.30;;
17032;SDS011;63208;52.178;21.016;2022-10-16T03:13:42;18.80;;;13.67;;
17032;SDS011;63208;52.178;21.016;2022-10-16T03:16:09;18.60;;;13.67;;
17032;SDS011;63208;52.178;21.016;2022-10-16T03:18:36;18.77;;;13.53;;
17032;SDS011;63208;52.178;21.016;2022-10-16T03:21:05;21.83;;;14.13;;
17032;SDS011;63208;52.178;21.016;2022-10-16T03:23:32;18.37;;;14.03;;
17032;SDS011;63208;52.178;21.016;2022-10-16T03:25:59;20.53;;;14.20;;
17032;SDS011;63208;52.178;21.016;2022-10-16T03:28:26;18.70;;;13.20;;
17032;SDS011;63208;52.178;21.016;2022-10-16T03:30:53;17.70;;;13.40;;
17032;SDS011;63208;52.178;21.016;2022-10-16T03:33:20;18.80;;;14.43;;
17032;SDS011;63208;52.178;21.016;2022-10-16T03:35:50;20.13;;;13.90;;
17032;SDS011;63208;52.178;21.016;2022-10-16T03:38:20;16.40;;;13.90;;
17032;SDS011;63208;52.178;21.016;2022-10-16T03:40:47;18.90;;;13.60;;
17032;SDS011;63208;52.178;21.016;2022-10-16T03:43:14;21.23;;;14.00;;
17032;SDS011;63208;52.178;21.016;2022-10-16T03:45:41;17.30;;;13.93;;
17032;SDS011;63208;52.178;21.016;2022-10-16T03:48:08;18.73;;;14.43;;
17032;SDS011;63208;52.178;21.016;2022-10-16T03:50:35;17.87;;;13.80;;
17032;SDS011;63208;52.178;21.016;2022-10-16T03:53:02;19.00;;;13.83;;
17032;SDS011;63208;52.178;21.016;2022-10-16T03:55:31;18.57;;;13.80;;
17032;SDS011;63208;52.178;21.016;2022-10-16T03:57:58;18.57;;;13.20;;
17032;SDS011;63208;52.178;21.016;2022-10-16T04:00:25;16.27;;;12.70;;
17032;SDS011;63208;52.178;21.016;2022-10-16T04:02:52;16.80;;;13.40;;
17032;SDS011;63208;52.178;21.016;2022-10-16T04:05:19;19.47;;;13.43;;
17032;SDS011;63208;52.178;21.016;2022-10-16T04:07:46;20.27;;;14.20;;
17032;SDS011;63208;52.178;21.016;2022-10-16T04:10:13;17.40;;;13.07;;
17032;SDS011;63208;52.178;21.016;2022-10-16T04:12:43;18.83;;;14.30;;
17032;SDS011;63208;52.178;21.016;2022-10-16T04:15:11;17.43;;;13.17;;
17032;SDS011;63208;52.178;21.016;2022-10-16T04:17:38;16.80;;;13.00;;
17032;SDS011;63208;52.178;21.016;2022-10-16T04:20:05;17.87;;;13.63;;
17032;SDS011;63208;52.178;21.016;2022-10-16T04:22:32;17.40;;;12.93;;
17032;SDS011;63208;52.178;21.016;2022-10-16T04:24:59;21.17;;;14.13;;
17032;SDS011;63208;52.178;21.016;2022-10-16T04:27:26;19.80;;;13.47;;
17032;SDS011;63208;52.178;21.016;2022-10-16T04:29:57;16.53;;;12.93;;
17032;SDS011;63208;52.178;21.016;2022-10-16T04:32:24;15.30;;;13.13;;
17032;SDS011;63208;52.178;21.016;2022-10-16T04:34:51;17.70;;;13.67;;
17032;SDS011;63208;52.178;21.016;2022-10-16T04:37:19;16.90;;;13.37;;
17032;SDS011;63208;52.178;21.016;2022-10-16T04:39:49;19.03;;;12.47;;
17032;SDS011;63208;52.178;21.016;2022-10-16T04:42:16;20.67;;;14.13;;
17032;SDS011;63208;52.178;21.016;2022-10-16T04:44:43;18.30;;;13.20;;
17032;SDS011;63208;52.178;21.016;2022-10-16T04:47:12;19.47;;;13.43;;
17032;SDS011;63208;52.178;21.016;2022-10-16T04:49:39;18.23;;;12.97;;
17032;SDS011;63208;52.178;21.016;2022-10-16T04:52:06;16.47;;;13.13;;
17032;SDS011;63208;52.178;21.016;2022-10-16T04:54:34;15.50;;;12.63;;
17032;SDS011;63208;52.178;21.016;2022-10-16T04:57:01;18.07;;;13.00;;
17032;SDS011;63208;52.178;21.016;2022-10-16T04:59:29;18.10;;;12.90;;
17032;SDS011;63208;52.178;21.016;2022-10-16T05:01:57;16.20;;;12.90;;
17032;SDS011;63208;52.178;21.016;2022-10-16T05:04:25;19.70;;;13.10;;
17032;SDS011;63208;52.178;21.016;2022-10-16T05:06:52;18.00;;;13.90;;
17032;SDS011;63208;52.178;21.016;2022-10-16T05:09:19;19.17;;;13.00;;
17032;SDS011;63208;52.178;21.016;2022-10-16T05:11:46;17.00;;;13.33;;
17032;SDS011;63208;52.178;21.016;2022-10-16T05:14:13;18.07;;;13.67;;
17032;SDS011;63208;52.178;21.016;2022-10-16T05:16:40;18.10;;;13.40;;
17032;SDS011;63208;52.178;21.016;2022-10-16T05:19:07;19.97;;;13.70;;
17032;SDS011;63208;52.178;21.016;2022-10-16T05:21:35;18.63;;;13.43;;
17032;SDS011;63208;52.178;21.016;2022-10-16T05:24:02;17.27;;;12.97;;
17032;SDS011;63208;52.178;21.016;2022-10-16T05:26:29;16.20;;;13.13;;
17032;SDS011;63208;52.178;21.016;2022-10-16T05:28:56;16.33;;;13.77;;
17032;SDS011;63208;52.178;21.016;2022-10-16T05:31:23;17.83;;;13.93;;
17032;SDS011;63208;52.178;21.016;2022-10-16T05:33:50;19.63;;;13.10;;
17032;SDS011;63208;52.178;21.016;2022-10-16T05:36:17;15.60;;;12.60;;
17032;SDS011;63208;52.178;21.016;2022-10-16T05:38:45;18.73;;;13.13;;
17032;SDS011;63208;52.178;21.016;2022-10-16T05:41:16;18.13;;;13.33;;
17032;SDS011;63208;52.178;21.016;2022-10-16T05:43:46;18.93;;;13.93;;
17032;SDS011;63208;52.178;21.016;2022-10-16T05:46:13;17.43;;;13.27;;
17032;SDS011;63208;52.178;21.016;2022-10-16T05:48:40;20.80;;;13.30;;
17032;SDS011;63208;52.178;21.016;2022-10-16T05:51:09;17.20;;;13.70;;
17032;SDS011;63208;52.178;21.016;2022-10-16T05:53:38;17.87;;;13.03;;
17032;SDS011;63208;52.178;21.016;2022-10-16T05:56:08;17.70;;;13.63;;
17032;SDS011;63208;52.178;21.016;2022-10-16T05:58:37;17.40;;;12.53;;
17032;SDS011;63208;52.178;21.016;2022-10-16T06:01:06;16.03;;;12.43;;
17032;SDS011;63208;52.178;21.016;2022-10-16T06:03:35;17.33;;;13.27;;
17032;SDS011;63208;52.178;21.016;2022-10-16T06:06:06;16.57;;;13.20;;
17032;SDS011;63208;52.178;21.016;2022-10-16T06:08:34;18.97;;;13.63;;
17032;SDS011;63208;52.178;21.016;2022-10-16T06:11:02;18.90;;;12.93;;
17032;SDS011;63208;52.178;21.016;2022-10-16T06:13:31;16.83;;;12.43;;
17032;SDS011;63208;52.178;21.016;2022-10-16T06:15:58;17.17;;;13.23;;
17032;SDS011;63208;52.178;21.016;2022-10-16T06:18:26;16.70;;;12.93;;
17032;SDS011;63208;52.178;21.016;2022-10-16T06:20:54;18.77;;;13.33;;
17032;SDS011;63208;52.178;21.016;2022-10-16T06:23:21;18.57;;;12.77;;
17032;SDS011;63208;52.178;21.016;2022-10-16T06:25:49;18.97;;;13.73;;
17032;SDS011;63208;52.178;21.016;2022-10-16T06:28:16;16.00;;;13.07;;
17032;SDS011;63208;52.178;21.016;2022-10-16T06:30:44;14.63;;;12.00;;
17032;SDS011;63208;52.178;21.016;2022-10-16T06:33:11;18.37;;;13.40;;
17032;SDS011;63208;52.178;21.016;2022-10-16T06:35:38;17.63;;;13.30;;
17032;SDS011;63208;52.178;21.016;2022-10-16T06:38:05;18.43;;;13.40;;
17032;SDS011;63208;52.178;21.016;2022-10-16T06:40:32;15.70;;;12.67;;
17032;SDS011;63208;52.178;21.016;2022-10-16T06:42:59;16.90;;;13.83;;
17032;SDS011;63208;52.178;21.016;2022-10-16T06:45:26;19.27;;;13.80;;
17032;SDS011;63208;52.178;21.016;2022-10-16T06:47:55;17.17;;;12.27;;
17032;SDS011;63208;52.178;21.016;2022-10-16T06:50:22;16.57;;;12.83;;
17032;SDS011;63208;52.178;21.016;2022-10-16T06:52:49;15.03;;;12.53;;
17032;SDS011;63208;52.178;21.016;2022-10-16T06:55:16;15.87;;;12.03;;
17032;SDS011;63208;52.178;21.016;2022-10-16T06:57:43;17.20;;;12.83;;
17032;SDS011;63208;52.178;21.016;2022-10-16T07:00:13;15.80;;;12.73;;
17032;SDS011;63208;52.178;21.016;2022-10-16T07:02:40;19.70;;;13.83;;
17032;SDS011;63208;52.178;21.016;2022-10-16T07:05:08;16.07;;;12.73;;
17032;SDS011;63208;52.178;21.016;2022-10-16T07:07:35;16.37;;;13.10;;
17032;SDS011;63208;52.178;21.016;2022-10-16T07:10:02;17.30;;;12.63;;
17032;SDS011;63208;52.178;21.016;2022-10-16T07:12:30;18.20;;;12.80;;
17032;SDS011;63208;52.178;21.016;2022-10-16T07:14:57;18.23;;;12.97;;
17032;SDS011;63208;52.178;21.016;2022-10-16T07:17:24;17.07;;;12.50;;
17032;SDS011;63208;52.178;21.016;2022-10-16T07:19:51;16.13;;;12.40;;
17032;SDS011;63208;52.178;21.016;2022-10-16T07:22:19;18.03;;;13.60;;
17032;SDS011;63208;52.178;21.016;2022-10-16T07:24:46;16.93;;;12.73;;
17032;SDS011;63208;52.178;21.016;2022-10-16T07:27:13;16.17;;;13.27;;
17032;SDS011;63208;52.178;21.016;2022-10-16T07:29:41;17.60;;;12.80;;
17032;SDS011;63208;52.178;21.016;2022-10-16T07:32:08;15.80;;;12.93;;
17032;SDS011;63208;52.178;21.016;2022-10-16T07:34:35;16.80;;;13.37;;
17032;SDS011;63208;52.178;21.016;2022-10-16T07:37:02;17.93;;;13.10;;
17032;SDS011;63208;52.178;21.016;2022-10-16T07:39:30;17.20;;;12.57;;
17032;SDS011;63208;52.178;21.016;2022-10-16T07:41:57;17.07;;;13.07;;
17032;SDS011;63208;52.178;21.016;2022-10-16T07:44:24;17.53;;;13.33;;
17032;SDS011;63208;52.178;21.016;2022-10-16T07:46:51;16.40;;;12.93;;
17032;SDS011;63208;52.178;21.016;2022-10-16T07:49:18;16.47;;;12.27;;
17032;SDS011;63208;52.178;21.016;2022-10-16T07:51:45;17.57;;;12.20;;
17032;SDS011;63208;52.178;21.016;2022-10-16T07:54:12;15.57;;;11.97;;
17032;SDS011;63208;52.178;21.016;2022-10-16T07:56:41;16.17;;;11.53;;
17032;SDS011;63208;52.178;21.016;2022-10-16T07:59:08;14.83;;;11.60;;
17032;SDS011;63208;52.178;21.016;2022-10-16T08:01:35;15.83;;;11.90;;
17032;SDS011;63208;52.178;21.016;2022-10-16T08:04:02;15.87;;;12.20;;
17032;SDS011;63208;52.178;21.016;2022-10-16T08:06:29;13.33;;;11.57;;
17032;SDS011;63208;52.178;21.016;2022-10-16T08:09:01;16.47;;;11.57;;
17032;SDS011;63208;52.178;21.016;2022-10-16T08:11:28;14.10;;;11.90;;
17032;SDS011;63208;52.178;21.016;2022-10-16T08:13:56;14.43;;;11.67;;
17032;SDS011;63208;52.178;21.016;2022-10-16T08:16:24;16.00;;;11.07;;
17032;SDS011;63208;52.178;21.016;2022-10-16T08:18:51;16.43;;;11.40;;
17032;SDS011;63208;52.178;21.016;2022-10-16T08:21:19;13.83;;;11.60;;
17032;SDS011;63208;52.178;21.016;2022-10-16T08:23:48;14.90;;;11.63;;
17032;SDS011;63208;52.178;21.016;2022-10-16T08:26:15;14.17;;;11.47;;
17032;SDS011;63208;52.178;21.016;2022-10-16T08:28:42;14.50;;;11.47;;
17032;SDS011;63208;52.178;21.016;2022-10-16T08:31:12;15.20;;;11.70;;
17032;SDS011;63208;52.178;21.016;2022-10-16T08:33:41;14.37;;;11.13;;
17032;SDS011;63208;52.178;21.016;2022-10-16T08:36:10;15.03;;;10.90;;
17032;SDS011;63208;52.178;21.016;2022-10-16T08:38:38;14.87;;;10.90;;
17032;SDS011;63208;52.178;21.016;2022-10-16T08:41:20;14.90;;;10.90;;
17032;SDS011;63208;52.178;21.016;2022-10-16T08:44:18;15.10;;;11.50;;
17032;SDS011;63208;52.178;21.016;2022-10-16T08:47:01;13.57;;;10.93;;
17032;SDS011;63208;52.178;21.016;2022-10-16T08:49:37;16.20;;;10.60;;
17032;SDS011;63208;52.178;21.016;2022-10-16T08:52:08;12.40;;;10.93;;
17032;SDS011;63208;52.178;21.016;2022-10-16T08:54:40;14.33;;;10.90;;
17032;SDS011;63208;52.178;21.016;2022-10-16T08:57:11;14.67;;;11.23;;
17032;SDS011;63208;52.178;21.016;2022-10-16T08:59:40;14.17;;;10.67;;
17032;SDS011;63208;52.178;21.016;2022-10-16T09:02:16;13.93;;;10.57;;
17032;SDS011;63208;52.178;21.016;2022-10-16T09:04:58;13.67;;;10.90;;
17032;SDS011;63208;52.178;21.016;2022-10-16T09:07:46;14.40;;;10.57;;
17032;SDS011;63208;52.178;21.016;2022-10-16T09:10:23;15.13;;;11.23;;
17032;SDS011;63208;52.178;21.016;2022-10-16T09:13:02;13.83;;;10.73;;
17032;SDS011;63208;52.178;21.016;2022-10-16T09:15:42;14.23;;;10.50;;
17032;SDS011;63208;52.178;21.016;2022-10-16T09:18:18;11.97;;;10.07;;
17032;SDS011;63208;52.178;21.016;2022-10-16T09:20:51;12.03;;;10.60;;
17032;SDS011;63208;52.178;21.016;2022-10-16T09:23:25;13.67;;;10.90;;
17032;SDS011;63208;52.178;21.016;2022-10-16T09:25:54;13.83;;;9.70;;
17032;SDS011;63208;52.178;21.016;2022-10-16T09:28:22;15.13;;;10.37;;
17032;SDS011;63208;52.178;21.016;2022-10-16T09:30:49;14.27;;;10.47;;
17032;SDS011;63208;52.178;21.016;2022-10-16T09:33:18;16.27;;;10.23;;
17032;SDS011;63208;52.178;21.016;2022-10-16T09:35:48;15.43;;;10.50;;
17032;SDS011;63208;52.178;21.016;2022-10-16T09:38:23;12.77;;;9.93;;
17032;SDS011;63208;52.178;21.016;2022-10-16T09:40:53;12.73;;;10.27;;
17032;SDS011;63208;52.178;21.016;2022-10-16T09:43:22;12.63;;;9.80;;
17032;SDS011;63208;52.178;21.016;2022-10-16T09:45:53;10.90;;;9.63;;
17032;SDS011;63208;52.178;21.016;2022-10-16T09:48:23;12.43;;;10.00;;
17032;SDS011;63208;52.178;21.016;2022-10-16T09:50:56;12.10;;;10.00;;
17032;SDS011;63208;52.178;21.016;2022-10-16T09:53:24;15.53;;;10.27;;
17032;SDS011;63208;52.178;21.016;2022-10-16T09:56:03;14.13;;;10.20;;
17032;SDS011;63208;52.178;21.016;2022-10-16T09:58:31;13.80;;;9.97;;
17032;SDS011;63208;52.178;21.016;2022-10-16T10:00:59;12.17;;;10.30;;
17032;SDS011;63208;52.178;21.016;2022-10-16T10:03:33;14.60;;;10.13;;
17032;SDS011;63208;52.178;21.016;2022-10-16T10:06:05;13.23;;;10.13;;
17032;SDS011;63208;52.178;21.016;2022-10-16T10:08:52;13.53;;;9.87;;
17032;SDS011;63208;52.178;21.016;2022-10-16T10:11:39;12.43;;;10.13;;
17032;SDS011;63208;52.178;21.016;2022-10-16T10:14:12;10.23;;;9.17;;
17032;SDS011;63208;52.178;21.016;2022-10-16T10:16:47;11.53;;;9.10;;
17032;SDS011;63208;52.178;21.016;2022-10-16T10:19:16;12.87;;;9.43;;
17032;SDS011;63208;52.178;21.016;2022-10-16T10:21:44;16.50;;;10.47;;
17032;SDS011;63208;52.178;21.016;2022-10-16T10:24:12;12.53;;;9.90;;
17032;SDS011;63208;52.178;21.016;2022-10-16T10:26:41;11.40;;;9.33;;
17032;SDS011;63208;52.178;21.016;2022-10-16T10:29:17;11.57;;;9.40;;
17032;SDS011;63208;52.178;21.016;2022-10-16T10:31:57;11.93;;;9.93;;
17032;SDS011;63208;52.178;21.016;2022-10-16T10:34:43;12.63;;;9.13;;
17032;SDS011;63208;52.178;21.016;2022-10-16T10:37:42;10.07;;;8.60;;
17032;SDS011;63208;52.178;21.016;2022-10-16T10:40:30;10.63;;;8.63;;
17032;SDS011;63208;52.178;21.016;2022-10-16T10:43:11;10.73;;;9.00;;
17032;SDS011;63208;52.178;21.016;2022-10-16T10:45:47;12.03;;;10.10;;
17032;SDS011;63208;52.178;21.016;2022-10-16T10:48:21;11.07;;;8.73;;
17032;SDS011;63208;52.178;21.016;2022-10-16T10:51:08;11.77;;;9.30;;
17032;SDS011;63208;52.178;21.016;2022-10-16T10:53:44;11.77;;;9.37;;
17032;SDS011;63208;52.178;21.016;2022-10-16T10:56:17;10.30;;;9.00;;
17032;SDS011;63208;52.178;21.016;2022-10-16T10:58:54;12.30;;;8.90;;
17032;SDS011;63208;52.178;21.016;2022-10-16T11:01:40;10.13;;;9.03;;
17032;SDS011;63208;52.178;21.016;2022-10-16T11:04:19;12.10;;;9.43;;
17032;SDS011;63208;52.178;21.016;2022-10-16T11:07:02;10.43;;;9.13;;
17032;SDS011;63208;52.178;21.016;2022-10-16T11:09:32;9.90;;;8.90;;
17032;SDS011;63208;52.178;21.016;2022-10-16T11:12:04;12.60;;;9.70;;
17032;SDS011;63208;52.178;21.016;2022-10-16T11:14:40;10.40;;;9.30;;
17032;SDS011;63208;52.178;21.016;2022-10-16T11:17:13;11.93;;;8.83;;
17032;SDS011;63208;52.178;21.016;2022-10-16T11:19:45;10.03;;;8.93;;
17032;SDS011;63208;52.178;21.016;2022-10-16T11:22:19;11.57;;;8.67;;
17032;SDS011;63208;52.178;21.016;2022-10-16T11:24:51;10.70;;;8.50;;
17032;SDS011;63208;52.178;21.016;2022-10-16T11:27:26;9.80;;;8.23;;
17032;SDS011;63208;52.178;21.016;2022-10-16T11:30:02;11.53;;;8.80;;
17032;SDS011;63208;52.178;21.016;2022-10-16T11:32:35;10.77;;;9.43;;
17032;SDS011;63208;52.178;21.016;2022-10-16T11:35:13;11.30;;;8.80;;
17032;SDS011;63208;52.178;21.016;2022-10-16T11:37:47;12.10;;;8.83;;
17032;SDS011;63208;52.178;21.016;2022-10-16T11:40:19;10.47;;;8.83;;
17032;SDS011;63208;52.178;21.016;2022-10-16T11:42:51;11.70;;;8.50;;
17032;SDS011;63208;52.178;21.016;2022-10-16T11:45:26;9.43;;;8.20;;
17032;SDS011;63208;52.178;21.016;2022-10-16T11:48:00;10.00;;;8.87;;
17032;SDS011;63208;52.178;21.016;2022-10-16T11:50:31;11.40;;;8.13;;
17032;SDS011;63208;52.178;21.016;2022-10-16T11:53:04;9.83;;;8.17;;
17032;SDS011;63208;52.178;21.016;2022-10-16T11:55:40;9.17;;;8.27;;
17032;SDS011;63208;52.178;21.016;2022-10-16T11:58:09;12.10;;;8.45;;
17032;SDS011;63208;52.178;21.016;2022-10-16T12:00:50;11.77;;;9.57;;
17032;SDS011;63208;52.178;21.016;2022-10-16T12:03:22;12.70;;;8.47;;
17032;SDS011;63208;52.178;21.016;2022-10-16T12:06:02;10.93;;;9.20;;
17032;SDS011;63208;52.178;21.016;2022-10-16T12:08:41;12.67;;;8.30;;
17032;SDS011;63208;52.178;21.016;2022-10-16T12:11:20;12.27;;;8.00;;
17032;SDS011;63208;52.178;21.016;2022-10-16T12:13:50;10.60;;;8.83;;
17032;SDS011;63208;52.178;21.016;2022-10-16T12:16:21;12.10;;;9.27;;
17032;SDS011;63208;52.178;21.016;2022-10-16T12:18:49;10.13;;;8.57;;
17032;SDS011;63208;52.178;21.016;2022-10-16T12:21:35;9.47;;;8.47;;
17032;SDS011;63208;52.178;21.016;2022-10-16T12:24:04;9.80;;;8.38;;
17032;SDS011;63208;52.178;21.016;2022-10-16T12:26:32;11.43;;;9.20;;
17032;SDS011;63208;52.178;21.016;2022-10-16T12:29:11;12.27;;;8.80;;
17032;SDS011;63208;52.178;21.016;2022-10-16T12:31:45;10.47;;;9.23;;
17032;SDS011;63208;52.178;21.016;2022-10-16T12:34:14;10.88;;;8.68;;
17032;SDS011;63208;52.178;21.016;2022-10-16T12:36:49;8.67;;;7.73;;
17032;SDS011;63208;52.178;21.016;2022-10-16T12:39:21;11.43;;;8.80;;
17032;SDS011;63208;52.178;21.016;2022-10-16T12:42:00;12.73;;;8.03;;
17032;SDS011;63208;52.178;21.016;2022-10-16T12:44:31;9.93;;;8.57;;
17032;SDS011;63208;52.178;21.016;2022-10-16T12:46:59;10.60;;;8.37;;
17032;SDS011;63208;52.178;21.016;2022-10-16T12:49:30;11.00;;;8.33;;
17032;SDS011;63208;52.178;21.016;2022-10-16T12:52:02;9.27;;;8.30;;
17032;SDS011;63208;52.178;21.016;2022-10-16T12:54:32;10.10;;;8.47;;
17032;SDS011;63208;52.178;21.016;2022-10-16T12:57:17;10.23;;;8.80;;
17032;SDS011;63208;52.178;21.016;2022-10-16T12:59:58;9.53;;;8.53;;
17032;SDS011;63208;52.178;21.016;2022-10-16T13:02:39;9.90;;;8.30;;
17032;SDS011;63208;52.178;21.016;2022-10-16T13:05:26;9.00;;;7.90;;
17032;SDS011;63208;52.178;21.016;2022-10-16T13:08:06;9.47;;;7.83;;
17032;SDS011;63208;52.178;21.016;2022-10-16T13:10:51;22.87;;;12.63;;
17032;SDS011;63208;52.178;21.016;2022-10-16T13:13:38;11.50;;;8.20;;
17032;SDS011;63208;52.178;21.016;2022-10-16T13:16:20;11.50;;;8.60;;
17032;SDS011;63208;52.178;21.016;2022-10-16T13:18:56;9.80;;;8.37;;
17032;SDS011;63208;52.178;21.016;2022-10-16T13:21:38;9.87;;;8.30;;
17032;SDS011;63208;52.178;21.016;2022-10-16T13:24:19;10.17;;;8.10;;
17032;SDS011;63208;52.178;21.016;2022-10-16T13:26:59;8.53;;;7.50;;
17032;SDS011;63208;52.178;21.016;2022-10-16T13:29:33;10.73;;;8.00;;
17032;SDS011;63208;52.178;21.016;2022-10-16T13:32:01;10.17;;;8.13;;
17032;SDS011;63208;52.178;21.016;2022-10-16T13:34:41;8.77;;;7.87;;
17032;SDS011;63208;52.178;21.016;2022-10-16T13:37:15;9.63;;;7.80;;
17032;SDS011;63208;52.178;21.016;2022-10-16T13:39:44;8.47;;;7.40;;
17032;SDS011;63208;52.178;21.016;2022-10-16T13:42:13;8.90;;;7.67;;
17032;SDS011;63208;52.178;21.016;2022-10-16T13:44:45;9.13;;;7.93;;
17032;SDS011;63208;52.178;21.016;2022-10-16T13:47:15;12.03;;;7.90;;
17032;SDS011;63208;52.178;21.016;2022-10-16T13:49:43;9.53;;;7.93;;
17032;SDS011;63208;52.178;21.016;2022-10-16T13:52:17;9.33;;;8.27;;
17032;SDS011;63208;52.178;21.016;2022-10-16T13:54:45;8.93;;;7.73;;
17032;SDS011;63208;52.178;21.016;2022-10-16T13:57:14;11.17;;;7.90;;
17032;SDS011;63208;52.178;21.016;2022-10-16T13:59:42;10.13;;;8.20;;
17032;SDS011;63208;52.178;21.016;2022-10-16T14:02:15;9.93;;;7.33;;
17032;SDS011;63208;52.178;21.016;2022-10-16T14:04:48;8.97;;;7.90;;
17032;SDS011;63208;52.178;21.016;2022-10-16T14:07:18;8.83;;;7.93;;
17032;SDS011;63208;52.178;21.016;2022-10-16T14:09:50;8.20;;;7.43;;
17032;SDS011;63208;52.178;21.016;2022-10-16T14:12:20;10.03;;;7.93;;
17032;SDS011;63208;52.178;21.016;2022-10-16T14:14:48;10.73;;;7.67;;
17032;SDS011;63208;52.178;21.016;2022-10-16T14:17:19;11.17;;;7.90;;
17032;SDS011;63208;52.178;21.016;2022-10-16T14:19:49;9.47;;;8.43;;
17032;SDS011;63208;52.178;21.016;2022-10-16T14:22:22;11.90;;;7.60;;
17032;SDS011;63208;52.178;21.016;2022-10-16T14:24:54;9.30;;;7.53;;
17032;SDS011;63208;52.178;21.016;2022-10-16T14:27:26;10.50;;;7.87;;
17032;SDS011;63208;52.178;21.016;2022-10-16T14:30:11;8.87;;;7.97;;
17032;SDS011;63208;52.178;21.016;2022-10-16T14:32:41;8.13;;;7.33;;
17032;SDS011;63208;52.178;21.016;2022-10-16T14:35:22;10.53;;;7.20;;